createdAt,value
2019-04-28T00:00:16.274Z,8.3
2019-04-28T00:01:16.209Z,8.2
2019-04-28T00:02:16.227Z,8.1
2019-04-28T00:03:16.325Z,8.1
2019-04-28T00:04:16.277Z,8.1
2019-04-28T00:05:16.369Z,8.1
2019-04-28T00:06:16.330Z,8.1
2019-04-28T00:07:16.313Z,8.1
2019-04-28T00:08:16.332Z,8.1
2019-04-28T00:09:16.345Z,8
2019-04-28T00:10:16.384Z,7.8
2019-04-28T00:11:16.389Z,7.7
2019-04-28T00:12:16.420Z,7.7
2019-04-28T00:13:16.430Z,7.8
2019-04-28T00:14:16.450Z,7.8
2019-04-28T00:15:16.421Z,7.8
2019-04-28T00:16:16.440Z,7.9
2019-04-28T00:17:18.670Z,7.8
2019-04-28T00:18:16.461Z,7.6
2019-04-28T00:19:16.496Z,7.5
2019-04-28T00:20:16.475Z,7.5
2019-04-28T00:21:16.469Z,7.6
2019-04-28T00:22:16.483Z,7.7
2019-04-28T00:23:16.506Z,7.7
2019-04-28T00:24:16.576Z,7.8
2019-04-28T00:25:16.502Z,7.8
2019-04-28T00:26:16.505Z,7.9
2019-04-28T00:27:16.493Z,7.8
2019-04-28T00:28:16.514Z,7.7
2019-04-28T00:29:16.511Z,7.7
2019-04-28T00:30:16.528Z,7.7
2019-04-28T00:31:16.586Z,7.8
2019-04-28T00:32:16.669Z,7.7
2019-04-28T00:33:16.656Z,7.6
2019-04-28T00:34:16.748Z,7.6
2019-04-28T00:35:16.776Z,7.5
2019-04-28T00:36:16.816Z,7.5
2019-04-28T00:37:16.835Z,7.5
2019-04-28T00:38:16.914Z,7.5
2019-04-28T00:39:16.961Z,7.5
2019-04-28T00:40:17.013Z,7.5
2019-04-28T00:41:17.079Z,7.4
2019-04-28T00:42:17.163Z,7.4
2019-04-28T00:43:17.205Z,7.4
2019-04-28T00:44:17.258Z,7.3
2019-04-28T00:45:17.305Z,7.2
2019-04-28T00:46:17.335Z,7.3
2019-04-28T00:47:17.416Z,7.4
2019-04-28T00:48:17.480Z,7.4
2019-04-28T00:49:17.491Z,7.5
2019-04-28T00:50:17.547Z,7.4
2019-04-28T00:51:17.575Z,7.5
2019-04-28T00:52:17.602Z,7.5
2019-04-28T00:53:17.697Z,7.5
2019-04-28T00:54:17.811Z,7.4
2019-04-28T00:55:17.769Z,7.4
2019-04-28T00:56:17.809Z,7.4
2019-04-28T00:57:17.843Z,7.4
2019-04-28T00:58:17.862Z,7.5
2019-04-28T00:59:17.934Z,7.6
2019-04-28T01:00:18.062Z,7.6
2019-04-28T01:01:18.010Z,7.6
2019-04-28T01:02:18.005Z,7.6
2019-04-28T01:03:18.068Z,7.6
2019-04-28T01:04:18.122Z,7.6
2019-04-28T01:05:18.200Z,7.6
2019-04-28T01:06:18.259Z,7.4
2019-04-28T01:07:18.282Z,7.3
2019-04-28T01:08:18.327Z,7.3
2019-04-28T01:09:18.400Z,7.4
2019-04-28T01:10:18.458Z,7.4
2019-04-28T01:11:18.491Z,7.3
2019-04-28T01:12:18.537Z,7.4
2019-04-28T01:13:18.591Z,7.3
2019-04-28T01:14:18.650Z,7.3
2019-04-28T01:15:20.166Z,7.4
2019-04-28T01:16:19.388Z,7.3
2019-04-28T01:17:19.794Z,7.3
2019-04-28T01:18:20.115Z,7.2
2019-04-28T01:19:20.202Z,7.2
2019-04-28T01:20:19.648Z,7.1
2019-04-28T01:21:20.299Z,7
2019-04-28T01:22:20.124Z,7
2019-04-28T01:23:20.328Z,7.1
2019-04-28T01:24:20.041Z,7.1
2019-04-28T01:25:20.272Z,7.1
2019-04-28T01:26:19.984Z,7.1
2019-04-28T01:27:20.340Z,7.1
2019-04-28T01:28:19.450Z,7.2
2019-04-28T01:29:19.530Z,7.2
2019-04-28T01:30:20.257Z,7.3
2019-04-28T01:31:21.123Z,7.2
2019-04-28T01:32:20.285Z,7.2
2019-04-28T01:33:20.556Z,7.2
2019-04-28T01:34:20.269Z,7.3
2019-04-28T01:35:20.986Z,7.3
2019-04-28T01:36:20.261Z,7.3
2019-04-28T01:37:19.681Z,7.2
2019-04-28T01:38:20.403Z,7.2
2019-04-28T01:39:20.038Z,7.1
2019-04-28T01:40:20.476Z,7
2019-04-28T01:41:19.834Z,6.9
2019-04-28T01:42:20.358Z,6.9
2019-04-28T01:43:19.695Z,7.1
2019-04-28T01:44:19.882Z,7.2
2019-04-28T01:45:20.539Z,7
2019-04-28T01:46:19.904Z,6.9
2019-04-28T01:47:20.442Z,6.8
2019-04-28T01:48:19.902Z,6.7
2019-04-28T01:49:19.750Z,6.7
2019-04-28T01:50:20.408Z,6.7
2019-04-28T01:51:20.847Z,6.8
2019-04-28T01:52:20.261Z,6.7
2019-04-28T01:53:19.948Z,6.7
2019-04-28T01:54:20.032Z,6.8
2019-04-28T01:56:20.415Z,6.7
2019-04-28T01:57:21.525Z,6.6
2019-04-28T01:58:20.390Z,6.7
2019-04-28T01:59:20.109Z,6.8
2019-04-28T02:00:24.938Z,6.9
2019-04-28T02:01:20.424Z,6.8
2019-04-28T02:02:20.031Z,6.6
2019-04-28T02:03:20.516Z,6.5
2019-04-28T02:04:20.012Z,6.5
2019-04-28T02:05:20.022Z,6.7
2019-04-28T02:06:20.025Z,6.7
2019-04-28T02:07:20.619Z,6.5
2019-04-28T02:08:20.321Z,6.5
2019-04-28T02:09:22.671Z,6.5
2019-04-28T02:10:21.782Z,6.6
2019-04-28T02:11:20.105Z,6.6
2019-04-28T02:12:20.403Z,6.6
2019-04-28T02:13:20.129Z,6.6
2019-04-28T02:14:20.121Z,6.7
2019-04-28T02:15:20.307Z,6.5
2019-04-28T02:16:20.124Z,6.6
2019-04-28T02:17:20.311Z,6.6
2019-04-28T02:18:20.151Z,6.6
2019-04-28T02:19:20.384Z,6.6
2019-04-28T02:20:20.268Z,6.9
2019-04-28T02:21:20.167Z,6.8
2019-04-28T02:22:22.619Z,6.8
2019-04-28T02:23:20.207Z,6.6
2019-04-28T02:24:20.261Z,6.5
2019-04-28T02:25:21.375Z,6.4
2019-04-28T02:26:20.339Z,6.3
2019-04-28T02:27:20.466Z,6.3
2019-04-28T02:28:20.466Z,6.3
2019-04-28T02:29:20.506Z,6.4
2019-04-28T02:30:26.502Z,6.5
2019-04-28T02:31:21.493Z,6.4
2019-04-28T02:32:24.108Z,6.3
2019-04-28T02:33:21.191Z,6.3
2019-04-28T02:34:21.256Z,6.2
2019-04-28T02:35:21.419Z,6.1
2019-04-28T02:36:20.892Z,6.3
2019-04-28T02:37:20.949Z,6.5
2019-04-28T02:38:21.148Z,6.4
2019-04-28T02:39:20.988Z,6.3
2019-04-28T02:40:21.000Z,6.3
2019-04-28T02:41:21.018Z,6.3
2019-04-28T02:42:21.128Z,6.1
2019-04-28T02:43:21.198Z,6.1
2019-04-28T02:44:23.469Z,6.2
2019-04-28T02:45:21.871Z,6.2
2019-04-28T02:46:21.276Z,6.3
2019-04-28T02:47:22.052Z,6.4
2019-04-28T02:48:21.387Z,6.3
2019-04-28T02:49:21.421Z,6
2019-04-28T02:50:21.448Z,5.9
2019-04-28T02:51:21.521Z,6.1
2019-04-28T02:52:22.579Z,6.1
2019-04-28T02:53:21.632Z,6.1
2019-04-28T02:54:21.717Z,6.1
2019-04-28T02:55:21.766Z,6.1
2019-04-28T02:56:21.872Z,6.1
2019-04-28T02:57:21.899Z,6.1
2019-04-28T02:58:22.507Z,6.1
2019-04-28T02:59:22.002Z,6.1
2019-04-28T03:00:22.072Z,6.1
2019-04-28T03:01:26.337Z,6.2
2019-04-28T03:02:22.146Z,6.1
2019-04-28T03:03:22.208Z,6
2019-04-28T03:04:22.212Z,6
2019-04-28T03:05:22.207Z,6.1
2019-04-28T03:06:22.331Z,5.9
2019-04-28T03:07:22.259Z,5.9
2019-04-28T03:08:22.339Z,5.9
2019-04-28T03:09:22.328Z,5.9
2019-04-28T03:10:22.401Z,5.8
2019-04-28T03:11:22.435Z,5.8
2019-04-28T03:12:22.459Z,5.9
2019-04-28T03:13:22.482Z,5.8
2019-04-28T03:14:22.506Z,5.9
2019-04-28T03:15:22.553Z,5.9
2019-04-28T03:16:23.102Z,5.8
2019-04-28T03:17:22.589Z,5.8
2019-04-28T03:18:22.602Z,5.8
2019-04-28T03:19:22.637Z,5.8
2019-04-28T03:20:22.714Z,5.8
2019-04-28T03:21:22.757Z,5.6
2019-04-28T03:22:22.804Z,5.9
2019-04-28T03:23:22.823Z,6
2019-04-28T03:24:22.849Z,6.1
2019-04-28T03:25:22.899Z,6.1
2019-04-28T03:26:22.959Z,6.1
2019-04-28T03:27:23.002Z,5.9
2019-04-28T03:28:23.023Z,5.7
2019-04-28T03:29:23.025Z,5.8
2019-04-28T03:30:23.264Z,6
2019-04-28T03:31:50.576Z,6.1
2019-04-28T03:32:39.112Z,6.4
2019-04-28T03:33:25.212Z,6.3
2019-04-28T03:34:23.638Z,6.4
2019-04-28T03:35:23.351Z,6.5
2019-04-28T03:36:23.715Z,6.5
2019-04-28T03:37:24.126Z,6.4
2019-04-28T03:38:23.257Z,6.4
2019-04-28T03:39:23.295Z,6.4
2019-04-28T03:40:23.354Z,6.4
2019-04-28T03:41:23.482Z,6.4
2019-04-28T03:42:23.403Z,6.3
2019-04-28T03:43:23.430Z,6.1
2019-04-28T03:44:23.450Z,6.2
2019-04-28T03:45:23.502Z,6.3
2019-04-28T03:46:23.525Z,6.5
2019-04-28T03:47:23.519Z,6.5
2019-04-28T03:48:23.557Z,6.5
2019-04-28T03:49:23.607Z,6.6
2019-04-28T03:50:23.608Z,6.7
2019-04-28T03:51:23.645Z,6.9
2019-04-28T03:52:23.655Z,6.9
2019-04-28T03:53:23.712Z,6.8
2019-04-28T03:54:23.746Z,6.7
2019-04-28T03:55:23.744Z,6.4
2019-04-28T03:56:23.753Z,6.5
2019-04-28T03:57:23.779Z,6.4
2019-04-28T03:58:24.348Z,6.3
2019-04-28T03:59:23.833Z,6.4
2019-04-28T04:00:23.845Z,6.1
2019-04-28T04:01:23.853Z,6.1
2019-04-28T04:02:24.030Z,6.2
2019-04-28T04:03:23.902Z,6.3
2019-04-28T04:04:23.901Z,6.3
2019-04-28T04:05:23.952Z,6.4
2019-04-28T04:06:23.976Z,6.3
2019-04-28T04:07:23.957Z,6.4
2019-04-28T04:08:23.996Z,6.4
2019-04-28T04:09:24.213Z,6.4
2019-04-28T04:10:24.026Z,6.2
2019-04-28T04:11:24.174Z,6.2
2019-04-28T04:12:24.083Z,6.3
2019-04-28T04:13:24.117Z,6.5
2019-04-28T04:14:24.123Z,6.5
2019-04-28T04:15:24.137Z,6.5
2019-04-28T04:16:24.162Z,6.4
2019-04-28T04:17:24.149Z,6.1
2019-04-28T04:18:24.199Z,6
2019-04-28T04:19:24.199Z,6.1
2019-04-28T04:20:24.192Z,6
2019-04-28T04:21:24.227Z,6
2019-04-28T04:22:26.680Z,5.9
2019-04-28T04:23:24.222Z,6
2019-04-28T04:24:24.226Z,6.2
2019-04-28T04:25:24.231Z,6.3
2019-04-28T04:26:24.295Z,6.4
2019-04-28T04:27:24.246Z,6.6
2019-04-28T04:28:24.246Z,6.5
2019-04-28T04:29:24.255Z,6.5
2019-04-28T04:30:24.264Z,6.4
2019-04-28T04:31:24.304Z,6.4
2019-04-28T04:32:27.076Z,6.5
2019-04-28T04:33:24.282Z,6.6
2019-04-28T04:34:24.279Z,6.8
2019-04-28T04:35:24.286Z,6.8
2019-04-28T04:36:24.305Z,6.6
2019-04-28T04:37:24.288Z,6.8
2019-04-28T04:38:24.339Z,6.9
2019-04-28T04:39:24.401Z,7.1
2019-04-28T04:40:24.479Z,7
2019-04-28T04:41:24.535Z,7
2019-04-28T04:42:24.626Z,7
2019-04-28T04:43:24.635Z,6.7
2019-04-28T04:44:24.641Z,6.6
2019-04-28T04:45:24.715Z,6.6
2019-04-28T04:46:24.797Z,6.6
2019-04-28T04:47:24.808Z,6.5
2019-04-28T04:48:24.845Z,6.5
2019-04-28T04:49:24.931Z,6.6
2019-04-28T04:50:24.936Z,6.4
2019-04-28T04:51:25.007Z,6.4
2019-04-28T04:52:25.015Z,6.4
2019-04-28T04:53:25.063Z,6.4
2019-04-28T04:54:26.170Z,6.6
2019-04-28T04:55:25.217Z,6.6
2019-04-28T04:56:25.249Z,6.8
2019-04-28T04:57:25.304Z,6.9
2019-04-28T04:58:25.354Z,6.7
2019-04-28T04:59:25.405Z,6.5
2019-04-28T05:00:25.535Z,6.6
2019-04-28T05:01:25.523Z,6.7
2019-04-28T05:02:29.202Z,6.6
2019-04-28T05:03:25.619Z,6.5
2019-04-28T05:04:25.663Z,6.4
2019-04-28T05:05:25.693Z,6.7
2019-04-28T05:06:25.740Z,6.7
2019-04-28T05:07:25.774Z,6.6
2019-04-28T05:08:25.798Z,6.6
2019-04-28T05:09:25.825Z,6.5
2019-04-28T05:10:25.840Z,6.5
2019-04-28T05:11:25.889Z,6.5
2019-04-28T05:12:25.885Z,6.4
2019-04-28T05:13:25.893Z,6.6
2019-04-28T05:14:25.937Z,6.7
2019-04-28T05:15:25.971Z,6.7
2019-04-28T05:16:25.992Z,6.6
2019-04-28T05:17:26.014Z,6.6
2019-04-28T05:18:26.063Z,6.3
2019-04-28T05:19:26.085Z,6.1
2019-04-28T05:20:26.130Z,6
2019-04-28T05:21:26.191Z,5.9
2019-04-28T05:22:26.209Z,5.9
2019-04-28T05:23:26.318Z,6.2
2019-04-28T05:24:26.329Z,6.3
2019-04-28T05:25:29.174Z,6.5
2019-04-28T05:26:26.381Z,6.7
2019-04-28T05:27:26.394Z,6.7
2019-04-28T05:28:26.424Z,6.5
2019-04-28T05:29:27.808Z,6.2
2019-04-28T05:30:26.490Z,6.1
2019-04-28T05:31:26.488Z,6.2
2019-04-28T05:32:39.170Z,6.4
2019-04-28T05:33:30.376Z,6.4
2019-04-28T05:34:26.541Z,6.3
2019-04-28T05:35:26.592Z,6.3
2019-04-28T05:36:26.651Z,6.2
2019-04-28T05:37:26.693Z,6.3
2019-04-28T05:38:26.706Z,6.3
2019-04-28T05:39:26.746Z,6.4
2019-04-28T05:40:26.756Z,6.5
2019-04-28T05:41:26.794Z,6.5
2019-04-28T05:42:26.838Z,6.6
2019-04-28T05:43:26.856Z,6.2
2019-04-28T05:44:27.071Z,6.1
2019-04-28T05:45:26.910Z,6.3
2019-04-28T05:46:26.915Z,6.1
2019-04-28T05:47:26.924Z,5.9
2019-04-28T05:48:26.950Z,5.9
2019-04-28T05:49:26.945Z,5.9
2019-04-28T05:50:27.016Z,6.2
2019-04-28T05:51:27.002Z,6.3
2019-04-28T05:52:27.039Z,6.2
2019-04-28T05:53:27.033Z,5.9
2019-04-28T05:54:27.080Z,6
2019-04-28T05:55:27.074Z,6.2
2019-04-28T05:56:27.107Z,6.3
2019-04-28T05:57:27.148Z,6.1
2019-04-28T05:58:27.141Z,5.8
2019-04-28T05:59:27.163Z,5.3
2019-04-28T06:00:27.187Z,5.6
2019-04-28T06:01:27.202Z,5.7
2019-04-28T06:02:27.219Z,5.6
2019-04-28T06:03:27.231Z,5.8
2019-04-28T06:04:27.256Z,5.8
2019-04-28T06:05:27.241Z,5.6
2019-04-28T06:06:27.281Z,5.6
2019-04-28T06:07:27.306Z,5.8
2019-04-28T06:08:27.298Z,6.1
2019-04-28T06:09:27.323Z,6.3
2019-04-28T06:10:27.310Z,6.4
2019-04-28T06:11:27.331Z,6.1
2019-04-28T06:12:27.331Z,5.9
2019-04-28T06:13:27.344Z,5.9
2019-04-28T06:14:27.335Z,5.6
2019-04-28T06:15:29.308Z,5.8
2019-04-28T06:16:27.357Z,5.7
2019-04-28T06:17:29.296Z,5.9
2019-04-28T06:18:27.331Z,5.8
2019-04-28T06:19:27.400Z,5.9
2019-04-28T06:20:27.384Z,6.2
2019-04-28T06:21:27.470Z,6.3
2019-04-28T06:22:27.496Z,5.6
2019-04-28T06:23:27.541Z,5.6
2019-04-28T06:24:27.574Z,5.7
2019-04-28T06:25:27.578Z,5.4
2019-04-28T06:26:27.664Z,5.5
2019-04-28T06:27:27.695Z,5.7
2019-04-28T06:28:27.766Z,5.9
2019-04-28T06:29:27.791Z,5.9
2019-04-28T06:30:27.867Z,5.6
2019-04-28T06:31:27.909Z,5.4
2019-04-28T06:32:27.926Z,5.5
2019-04-28T06:33:27.944Z,5.7
2019-04-28T06:34:27.959Z,5.9
2019-04-28T06:35:28.028Z,5.7
2019-04-28T06:36:28.094Z,5.7
2019-04-28T06:37:28.127Z,6
2019-04-28T06:38:28.186Z,5.9
2019-04-28T06:39:28.238Z,5.9
2019-04-28T06:40:30.857Z,5.8
2019-04-28T06:41:28.326Z,5.8
2019-04-28T06:42:28.383Z,5.9
2019-04-28T06:43:28.431Z,6
2019-04-28T06:44:28.490Z,5.8
2019-04-28T06:45:28.530Z,5.7
2019-04-28T06:46:28.597Z,5.7
2019-04-28T06:47:28.609Z,5.2
2019-04-28T06:48:28.701Z,5.4
2019-04-28T06:49:28.766Z,5.3
2019-04-28T06:50:28.791Z,5.5
2019-04-28T06:51:28.826Z,5.5
2019-04-28T06:52:28.920Z,5.5
2019-04-28T06:53:28.902Z,5.7
2019-04-28T06:54:28.934Z,5.2
2019-04-28T06:55:28.974Z,5.2
2019-04-28T06:56:29.008Z,5.2
2019-04-28T06:57:29.058Z,5.1
2019-04-28T06:58:29.079Z,5.6
2019-04-28T06:59:29.106Z,5.5
2019-04-28T07:00:29.123Z,5.8
2019-04-28T07:01:29.152Z,5.7
2019-04-28T07:02:29.206Z,5.8
2019-04-28T07:03:29.264Z,5.9
2019-04-28T07:04:29.276Z,6
2019-04-28T07:05:29.349Z,5.3
2019-04-28T07:06:29.390Z,5.7
2019-04-28T07:07:29.494Z,5.6
2019-04-28T07:08:29.478Z,5.4
2019-04-28T07:09:29.549Z,5.5
2019-04-28T07:10:29.516Z,5.3
2019-04-28T07:11:29.590Z,5.5
2019-04-28T07:12:29.604Z,5.8
2019-04-28T07:13:29.649Z,5.9
2019-04-28T07:14:29.673Z,5.6
2019-04-28T07:15:29.681Z,5.6
2019-04-28T07:16:29.733Z,5.6
2019-04-28T07:17:29.742Z,6.1
2019-04-28T07:18:29.774Z,6.1
2019-04-28T07:19:29.774Z,5.5
2019-04-28T07:20:29.801Z,5.3
2019-04-28T07:21:29.825Z,5.7
2019-04-28T07:22:29.875Z,6.1
2019-04-28T07:23:29.892Z,5.6
2019-04-28T07:24:29.915Z,5.2
2019-04-28T07:25:29.922Z,5.6
2019-04-28T07:26:29.983Z,5
2019-04-28T07:27:29.972Z,5
2019-04-28T07:28:30.003Z,5
2019-04-28T07:29:30.026Z,5.4
2019-04-28T07:30:30.069Z,5.5
2019-04-28T07:31:30.082Z,5.7
2019-04-28T07:32:30.118Z,5.4
2019-04-28T07:33:35.966Z,5.7
2019-04-28T07:34:30.162Z,5.2
2019-04-28T07:35:30.159Z,5.5
2019-04-28T07:36:30.173Z,5.5
2019-04-28T07:37:30.253Z,5.4
2019-04-28T07:38:30.235Z,5.4
2019-04-28T07:39:30.266Z,5.2
2019-04-28T07:40:30.280Z,5.5
2019-04-28T07:41:30.295Z,5.3
2019-04-28T07:42:30.315Z,5.1
2019-04-28T07:43:30.361Z,4.9
2019-04-28T07:44:30.362Z,5.2
2019-04-28T07:45:30.371Z,5.4
2019-04-28T07:46:30.379Z,5.2
2019-04-28T07:47:30.416Z,4.8
2019-04-28T07:48:30.415Z,4.9
2019-04-28T07:49:30.468Z,5.1
2019-04-28T07:50:30.432Z,5.4
2019-04-28T07:51:30.460Z,5.5
2019-04-28T07:52:30.536Z,5.7
2019-04-28T07:53:30.472Z,5.5
2019-04-28T07:54:30.463Z,5
2019-04-28T07:55:30.516Z,5
2019-04-28T07:56:33.276Z,5.3
2019-04-28T07:57:30.520Z,5.4
2019-04-28T07:58:30.533Z,5.5
2019-04-28T07:59:30.542Z,5.7
2019-04-28T08:00:30.515Z,5.7
2019-04-28T08:01:30.500Z,5.6
2019-04-28T08:02:30.577Z,5.5
2019-04-28T08:03:30.612Z,5.5
2019-04-28T08:04:30.675Z,5
2019-04-28T08:05:30.759Z,5.2
2019-04-28T08:06:30.811Z,5.5
2019-04-28T08:07:33.068Z,5.6
2019-04-28T08:08:30.877Z,5.6
2019-04-28T08:09:31.023Z,5.4
2019-04-28T08:10:31.024Z,5.3
2019-04-28T08:11:31.054Z,5.5
2019-04-28T08:12:33.339Z,5.2
2019-04-28T08:13:31.183Z,5.1
2019-04-28T08:14:33.731Z,5.4
2019-04-28T08:15:31.330Z,5.4
2019-04-28T08:16:31.308Z,5.1
2019-04-28T08:17:31.311Z,5.2
2019-04-28T08:18:31.677Z,5.3
2019-04-28T08:19:31.431Z,5.3
2019-04-28T08:20:31.444Z,5.2
2019-04-28T08:21:31.488Z,5.5
2019-04-28T08:22:31.581Z,5.5
2019-04-28T08:23:31.611Z,5.3
2019-04-28T08:24:31.630Z,5.6
2019-04-28T08:25:31.630Z,5.1
2019-04-28T08:26:31.711Z,5.4
2019-04-28T08:27:31.814Z,5.5
2019-04-28T08:28:31.851Z,6
2019-04-28T08:29:31.890Z,6
2019-04-28T08:30:31.889Z,5.8
2019-04-28T08:31:31.929Z,5.3
2019-04-28T08:32:31.963Z,5.1
2019-04-28T08:33:33.273Z,5.3
2019-04-28T08:34:32.010Z,5.8
2019-04-28T08:35:32.024Z,5.8
2019-04-28T08:36:32.099Z,5.3
2019-04-28T08:37:32.131Z,5.3
2019-04-28T08:38:32.142Z,5.3
2019-04-28T08:39:32.262Z,5.1
2019-04-28T08:40:32.279Z,5
2019-04-28T08:41:32.311Z,5.6
2019-04-28T08:43:28.902Z,5.4
2019-04-28T08:44:28.518Z,4.7
2019-04-28T08:45:28.597Z,5
2019-04-28T08:46:28.561Z,5.6
2019-04-28T08:47:28.578Z,5.5
2019-04-28T08:48:28.536Z,5.5
2019-04-28T08:49:28.557Z,5.6
2019-04-28T08:50:28.526Z,5.9
2019-04-28T08:51:28.518Z,5
2019-04-28T08:52:28.595Z,5.5
2019-04-28T08:53:28.634Z,5.5
2019-04-28T08:54:28.697Z,5.2
2019-04-28T08:55:28.769Z,5.8
2019-04-28T08:56:28.815Z,5.3
2019-04-28T08:57:28.836Z,5.5
2019-04-28T08:58:28.961Z,5.1
2019-04-28T08:59:28.929Z,4.9
2019-04-28T09:00:29.002Z,5.3
2019-04-28T09:01:29.061Z,5.3
2019-04-28T09:02:29.093Z,5.6
2019-04-28T09:03:31.607Z,5.4
2019-04-28T09:04:29.182Z,4.8
2019-04-28T09:05:29.309Z,5
2019-04-28T09:06:29.277Z,5
2019-04-28T09:07:29.313Z,5.2
2019-04-28T09:08:29.343Z,5.2
2019-04-28T09:09:29.401Z,5.6
2019-04-28T09:10:29.422Z,5.9
2019-04-28T09:11:29.505Z,5.9
2019-04-28T09:12:29.514Z,5.5
2019-04-28T09:13:29.562Z,5.5
2019-04-28T09:14:29.636Z,5.8
2019-04-28T09:15:29.678Z,5.4
2019-04-28T09:16:29.733Z,5.4
2019-04-28T09:17:29.776Z,5.3
2019-04-28T09:19:29.843Z,5.4
2019-04-28T09:20:29.883Z,6
2019-04-28T09:21:29.954Z,6.5
2019-04-28T09:22:29.933Z,5.6
2019-04-28T09:23:29.997Z,5.1
2019-04-28T09:24:30.010Z,5.7
2019-04-28T09:25:30.005Z,6.1
2019-04-28T09:26:30.035Z,5.9
2019-04-28T09:27:30.058Z,5.4
2019-04-28T09:28:30.124Z,5.4
2019-04-28T09:29:30.168Z,4.8
2019-04-28T09:30:30.224Z,5.3
2019-04-28T09:31:30.286Z,4.9
2019-04-28T09:32:30.315Z,5.4
2019-04-28T09:33:30.317Z,5.4
2019-04-28T09:34:30.369Z,5.6
2019-04-28T09:35:30.371Z,5.7
2019-04-28T09:36:33.047Z,5.2
2019-04-28T09:37:30.429Z,5.2
2019-04-28T09:38:30.413Z,5.6
2019-04-28T09:39:30.489Z,4.5
2019-04-28T09:40:30.474Z,4.6
2019-04-28T09:41:30.462Z,5.1
2019-04-28T09:42:30.505Z,5.3
2019-04-28T09:43:30.578Z,5
2019-04-28T09:44:30.617Z,4.9
2019-04-28T09:45:30.604Z,4.7
2019-04-28T09:46:30.679Z,4.6
2019-04-28T09:47:30.689Z,4.7
2019-04-28T09:48:30.706Z,4.9
2019-04-28T09:49:30.710Z,4.9
2019-04-28T09:50:30.765Z,4.6
2019-04-28T09:51:30.788Z,4.8
2019-04-28T09:52:30.810Z,5
2019-04-28T09:53:30.842Z,5.3
2019-04-28T09:54:30.983Z,5.4
2019-04-28T09:55:30.917Z,5.2
2019-04-28T09:56:30.914Z,5.4
2019-04-28T09:57:30.931Z,5.6
2019-04-28T09:58:30.980Z,5
2019-04-28T09:59:31.029Z,4.9
2019-04-28T10:00:31.015Z,4.9
2019-04-28T10:01:31.018Z,5.4
2019-04-28T10:02:31.082Z,5
2019-04-28T10:03:31.153Z,4.9
2019-04-28T10:04:40.873Z,5.5
2019-04-28T10:05:31.144Z,5.4
2019-04-28T10:06:31.156Z,5.2
2019-04-28T10:07:31.183Z,5.6
2019-04-28T10:08:31.285Z,5.5
2019-04-28T10:09:31.218Z,5.3
2019-04-28T10:10:31.257Z,5
2019-04-28T10:11:31.271Z,4.7
2019-04-28T10:12:31.255Z,4.7
2019-04-28T10:13:31.282Z,4.6
2019-04-28T10:14:31.298Z,4.4
2019-04-28T10:15:31.323Z,4.8
2019-04-28T10:16:31.399Z,4.6
2019-04-28T10:17:31.326Z,4.9
2019-04-28T10:18:31.354Z,5
2019-04-28T10:19:32.628Z,5.3
2019-04-28T10:20:31.369Z,5.1
2019-04-28T10:21:31.382Z,4.6
2019-04-28T10:22:31.371Z,4.8
2019-04-28T10:23:31.435Z,4.5
2019-04-28T10:24:31.399Z,4.6
2019-04-28T10:25:31.430Z,5
2019-04-28T10:26:31.416Z,5.5
2019-04-28T10:27:31.439Z,5.2
2019-04-28T10:28:31.454Z,4.8
2019-04-28T10:29:32.943Z,4.6
2019-04-28T10:30:31.413Z,4.4
2019-04-28T10:31:31.452Z,4.1
2019-04-28T10:32:31.505Z,4.5
2019-04-28T10:33:31.579Z,4.4
2019-04-28T10:34:31.650Z,4.5
2019-04-28T10:35:31.699Z,4.6
2019-04-28T10:36:31.775Z,4.6
2019-04-28T10:37:31.787Z,4.4
2019-04-28T10:38:31.790Z,4.9
2019-04-28T10:39:31.905Z,4.6
2019-04-28T10:40:31.926Z,4.8
2019-04-28T10:41:31.988Z,4.6
2019-04-28T10:42:32.046Z,4.5
2019-04-28T10:43:32.043Z,4.7
2019-04-28T10:44:32.121Z,5.2
2019-04-28T10:45:32.172Z,4.6
2019-04-28T10:46:32.213Z,5.2
2019-04-28T10:47:32.241Z,5.4
2019-04-28T10:48:32.270Z,5.3
2019-04-28T10:49:32.310Z,4.8
2019-04-28T10:50:32.355Z,5
2019-04-28T10:51:32.399Z,5.1
2019-04-28T10:52:32.386Z,5.1
2019-04-28T10:53:32.443Z,5.5
2019-04-28T10:54:32.497Z,5.1
2019-04-28T10:55:32.564Z,5.2
2019-04-28T10:56:32.580Z,5.2
2019-04-28T10:57:32.599Z,5
2019-04-28T10:58:32.712Z,5.4
2019-04-28T10:59:32.733Z,5.2
2019-04-28T11:00:32.784Z,5.3
2019-04-28T11:01:32.898Z,5.6
2019-04-28T11:02:32.900Z,5.6
2019-04-28T11:03:32.928Z,5.8
2019-04-28T11:04:32.986Z,5.3
2019-04-28T11:05:32.993Z,5.1
2019-04-28T11:06:33.057Z,5.4
2019-04-28T11:07:33.112Z,5.4
2019-04-28T11:08:33.134Z,5.5
2019-04-28T11:09:33.156Z,5.3
2019-04-28T11:10:33.215Z,5.4
2019-04-28T11:11:33.249Z,5.5
2019-04-28T11:12:33.291Z,5.7
2019-04-28T11:13:33.313Z,5.6
2019-04-28T11:14:33.386Z,5.7
2019-04-28T11:15:35.960Z,5.4
2019-04-28T11:16:33.506Z,5.6
2019-04-28T11:17:33.522Z,5.7
2019-04-28T11:18:33.587Z,5.4
2019-04-28T11:19:33.627Z,4.9
2019-04-28T11:20:33.635Z,4.5
2019-04-28T11:21:33.678Z,4.7
2019-04-28T11:22:33.721Z,5.3
2019-04-28T11:23:33.766Z,5.2
2019-04-28T11:24:33.839Z,5.3
2019-04-28T11:25:33.851Z,5.5
2019-04-28T11:26:33.891Z,5.4
2019-04-28T11:27:33.923Z,5.1
2019-04-28T11:28:33.940Z,5.4
2019-04-28T11:29:34.029Z,5.5
2019-04-28T11:30:34.004Z,5.3
2019-04-28T11:31:34.134Z,5.7
2019-04-28T11:32:34.063Z,5.6
2019-04-28T11:33:34.191Z,5.1
2019-04-28T11:34:34.217Z,4.8
2019-04-28T11:35:34.178Z,4.6
2019-04-28T11:36:34.210Z,5.1
2019-04-28T11:37:34.244Z,4.9
2019-04-28T11:38:34.280Z,5.1
2019-04-28T11:39:34.306Z,5.5
2019-04-28T11:40:34.325Z,5.6
2019-04-28T11:41:34.449Z,5.7
2019-04-28T11:42:34.351Z,5.7
2019-04-28T11:43:34.380Z,5.6
2019-04-28T11:44:34.418Z,5
2019-04-28T11:45:34.453Z,4.9
2019-04-28T11:46:34.463Z,5
2019-04-28T11:47:34.512Z,4.9
2019-04-28T11:48:34.495Z,4.9
2019-04-28T11:49:34.600Z,5
2019-04-28T11:50:34.746Z,5.2
2019-04-28T11:51:34.694Z,4.9
2019-04-28T11:52:34.577Z,4.9
2019-04-28T11:53:34.596Z,4.5
2019-04-28T11:54:34.727Z,4.4
2019-04-28T11:55:37.102Z,4.5
2019-04-28T11:56:41.067Z,4.3
2019-04-28T11:57:34.626Z,4.6
2019-04-28T11:58:34.654Z,4.3
2019-04-28T11:59:34.894Z,4.6
2019-04-28T12:00:34.662Z,4.7
2019-04-28T12:01:34.701Z,4.7
2019-04-28T12:02:34.679Z,4.7
2019-04-28T12:03:34.673Z,5
2019-04-28T12:04:36.912Z,5.1
2019-04-28T12:05:34.990Z,5.1
2019-04-28T12:06:34.762Z,5
2019-04-28T12:07:34.711Z,5.2
2019-04-28T12:08:34.793Z,5
2019-04-28T12:09:34.976Z,5.1
2019-04-28T12:10:35.073Z,5.1
2019-04-28T12:11:34.993Z,5.3
2019-04-28T12:12:35.051Z,5.5
2019-04-28T12:13:35.039Z,5.4
2019-04-28T12:14:35.064Z,5.5
2019-04-28T12:15:35.147Z,5.7
2019-04-28T12:16:35.211Z,5.4
2019-04-28T12:17:35.268Z,5
2019-04-28T12:18:35.267Z,5
2019-04-28T12:19:35.344Z,5
2019-04-28T12:20:35.381Z,4.8
2019-04-28T12:21:35.430Z,4.8
2019-04-28T12:22:35.446Z,4.8
2019-04-28T12:23:35.469Z,4.9
2019-04-28T12:24:35.521Z,5
2019-04-28T12:25:35.637Z,5.5
2019-04-28T12:26:42.934Z,5.3
2019-04-28T12:27:35.637Z,5.3
2019-04-28T12:28:35.682Z,5.5
2019-04-28T12:29:35.953Z,5.7
2019-04-28T12:30:35.787Z,4.9
2019-04-28T12:31:35.799Z,4.9
2019-04-28T12:32:35.860Z,5
2019-04-28T12:33:35.921Z,5.2
2019-04-28T12:34:36.078Z,5.4
2019-04-28T12:35:46.985Z,5.6
2019-04-28T12:36:36.128Z,5
2019-04-28T12:37:36.102Z,5
2019-04-28T12:38:36.226Z,5.2
2019-04-28T12:39:36.222Z,4.3
2019-04-28T12:40:36.262Z,4.2
2019-04-28T12:41:36.317Z,4.7
2019-04-28T12:42:36.325Z,4.9
2019-04-28T12:43:36.371Z,4.6
2019-04-28T12:44:36.431Z,5.4
2019-04-28T12:45:36.474Z,5.1
2019-04-28T12:46:36.541Z,4.9
2019-04-28T12:47:36.521Z,5.2
2019-04-28T12:48:36.563Z,5.2
2019-04-28T12:49:36.674Z,5.5
2019-04-28T12:50:36.674Z,5
2019-04-28T12:51:36.747Z,4.7
2019-04-28T12:52:36.760Z,4.4
2019-04-28T12:53:36.760Z,4.8
2019-04-28T12:54:36.836Z,4.9
2019-04-28T12:55:36.854Z,4.8
2019-04-28T12:56:39.130Z,5
2019-04-28T12:57:36.952Z,5.1
2019-04-28T12:58:36.951Z,5
2019-04-28T12:59:37.023Z,5
2019-04-28T13:00:37.070Z,5.3
2019-04-28T13:01:37.071Z,5.2
2019-04-28T13:02:37.120Z,5.1
2019-04-28T13:03:37.121Z,5.2
2019-04-28T13:04:37.210Z,5.8
2019-04-28T13:05:37.268Z,6.1
2019-04-28T13:06:37.386Z,6.2
2019-04-28T13:07:37.390Z,5.5
2019-04-28T13:08:37.383Z,5.3
2019-04-28T13:09:37.366Z,4.8
2019-04-28T13:10:37.407Z,5
2019-04-28T13:11:37.419Z,4.9
2019-04-28T13:12:37.591Z,4.9
2019-04-28T13:13:37.517Z,4.8
2019-04-28T13:14:37.614Z,4.8
2019-04-28T13:15:37.506Z,4.8
2019-04-28T13:16:37.646Z,5.1
2019-04-28T13:17:37.534Z,5.1
2019-04-28T13:18:37.619Z,5.4
2019-04-28T13:19:37.601Z,5
2019-04-28T13:20:37.600Z,4.8
2019-04-28T13:21:37.623Z,4.8
2019-04-28T13:22:37.681Z,4.9
2019-04-28T13:23:37.725Z,5
2019-04-28T13:24:37.711Z,5.4
2019-04-28T13:25:37.755Z,5.3
2019-04-28T13:26:37.729Z,4.9
2019-04-28T13:27:37.764Z,5.3
2019-04-28T13:28:37.762Z,4.8
2019-04-28T13:29:37.776Z,4.9
2019-04-28T13:30:37.804Z,4.7
2019-04-28T13:31:37.834Z,5.1
2019-04-28T13:32:40.323Z,5.2
2019-04-28T13:33:37.882Z,5.1
2019-04-28T13:34:37.892Z,5
2019-04-28T13:35:37.906Z,5.1
2019-04-28T13:36:37.955Z,5.3
2019-04-28T13:37:37.946Z,5.7
2019-04-28T13:38:37.926Z,6
2019-04-28T13:39:37.954Z,5.8
2019-04-28T13:40:37.966Z,5.2
2019-04-28T13:41:37.941Z,5
2019-04-28T13:42:37.954Z,4.6
2019-04-28T13:43:37.978Z,4.6
2019-04-28T13:44:37.974Z,5.1
2019-04-28T13:45:37.985Z,5
2019-04-28T13:46:38.025Z,4.7
2019-04-28T13:47:38.002Z,4.7
2019-04-28T13:48:38.161Z,4.8
2019-04-28T13:49:38.116Z,4.9
2019-04-28T13:50:38.037Z,5.3
2019-04-28T13:51:38.173Z,5
2019-04-28T13:52:38.090Z,5.1
2019-04-28T13:53:38.215Z,5.4